Time;durP1;ratioP1;P1;durP2;ratioP2;P2;SDS_P1;SDS_P2;PMS_P1;PMS_P2;Temp;Humidity;BMP_temperature;BMP_pressure;BME280_temperature;BME280_humidity;BME280_pressure;Samples;Min_cycle;Max_cycle;Signal;HPM_P1;HPM_P2
2021/08/24 00:01:42;;;;;;;5.22;4.15;;;15.20;99.90;;;;;;5080936;28;20085;-82
2021/08/24 00:04:08;;;;;;;5.90;3.72;;;15.20;99.90;;;;;;5077572;28;20025;-81
2021/08/24 00:06:34;;;;;;;3.90;3.60;;;15.20;99.90;;;;;;5076418;28;20031;-83
2021/08/24 00:09:00;;;;;;;3.83;3.40;;;15.10;99.90;;;;;;5074216;28;20024;-82
2021/08/24 00:11:25;;;;;;;5.32;3.83;;;15.10;99.90;;;;;;5076001;28;20025;-83
2021/08/24 00:13:54;;;;;;;6.00;3.55;;;15.10;99.90;;;;;;5088244;28;20043;-82
2021/08/24 00:16:19;;;;;;;4.35;3.90;;;15.00;99.90;;;;;;5084407;28;20548;-81
2021/08/24 00:18:45;;;;;;;3.80;3.40;;;15.00;99.90;;;;;;5086447;28;20051;-81
2021/08/24 00:21:11;;;;;;;5.55;3.58;;;15.00;99.90;;;;;;5080272;28;20042;-81
2021/08/24 00:23:37;;;;;;;4.55;3.53;;;15.00;99.90;;;;;;5077639;28;20027;-82
2021/08/24 00:26:03;;;;;;;4.40;3.50;;;15.00;99.90;;;;;;5078664;28;20498;-82
2021/08/24 00:28:29;;;;;;;5.30;3.88;;;15.00;99.90;;;;;;5096395;28;20020;-82
2021/08/24 00:30:55;;;;;;;5.82;3.92;;;15.00;99.90;;;;;;5083569;28;20024;-81
2021/08/24 00:33:22;;;;;;;3.90;3.25;;;14.90;99.90;;;;;;5098365;28;20027;-81
2021/08/24 00:35:48;;;;;;;5.20;3.90;;;14.90;99.90;;;;;;5083723;28;20052;-82
2021/08/24 00:38:20;;;;;;;9.40;4.18;;;14.90;99.90;;;;;;5082281;28;20070;-82
2021/08/24 00:41:00;;;;;;;6.20;3.53;;;14.80;99.90;;;;;;5085051;28;20045;-82
2021/08/24 00:43:27;;;;;;;5.88;3.83;;;14.80;99.90;;;;;;5077043;28;20020;-81
2021/08/24 00:46:07;;;;;;;3.97;3.60;;;14.80;99.90;;;;;;5076503;28;20085;-81
2021/08/24 00:48:33;;;;;;;7.23;3.60;;;14.70;99.90;;;;;;5079137;28;20086;-81
2021/08/24 00:50:59;;;;;;;5.00;3.80;;;14.70;99.90;;;;;;5080764;28;20033;-81
2021/08/24 00:53:30;;;;;;;5.57;3.10;;;14.70;99.90;;;;;;5092725;28;20105;-81
2021/08/24 00:55:58;;;;;;;6.45;4.10;;;14.60;99.90;;;;;;5089020;28;20028;-81
2021/08/24 00:58:24;;;;;;;3.38;3.08;;;14.60;99.90;;;;;;5084445;28;20029;-81
2021/08/24 01:00:49;;;;;;;7.82;3.78;;;14.60;99.90;;;;;;5101099;28;20024;-82
2021/08/24 01:03:21;;;;;;;9.15;4.03;;;14.60;99.90;;;;;;5106806;28;20020;-82
2021/08/24 01:05:50;;;;;;;3.78;3.47;;;14.60;99.90;;;;;;5100512;28;20032;-82
2021/08/24 01:08:41;;;;;;;5.38;3.75;;;14.50;99.90;;;;;;5101308;28;20028;-82
2021/08/24 01:11:41;;;;;;;7.57;4.05;;;14.50;99.90;;;;;;5096359;28;20024;-82
2021/08/24 01:14:12;;;;;;;5.72;3.55;;;14.50;99.90;;;;;;5095632;28;20052;-83
2021/08/24 01:16:44;;;;;;;10.25;4.85;;;14.50;99.90;;;;;;5101211;28;20020;-82
2021/08/24 01:19:31;;;;;;;6.50;3.92;;;14.40;99.90;;;;;;5111133;28;20035;-82
2021/08/24 01:22:24;;;;;;;4.38;3.97;;;14.40;99.90;;;;;;5103259;28;20135;-82
2021/08/24 01:24:56;;;;;;;4.95;4.07;;;14.40;99.90;;;;;;5089927;28;20128;-82
2021/08/24 01:27:36;;;;;;;5.35;3.78;;;14.30;99.90;;;;;;5098595;28;20075;-82
2021/08/24 01:30:44;;;;;;;4.65;4.15;;;14.30;99.90;;;;;;5107373;28;20028;-81
2021/08/24 01:33:28;;;;;;;6.38;4.30;;;14.30;99.90;;;;;;5080263;28;20032;-82
2021/08/24 01:36:26;;;;;;;5.10;4.18;;;14.20;99.90;;;;;;5105015;28;20059;-82
2021/08/24 01:38:57;;;;;;;4.68;4.15;;;14.20;99.90;;;;;;5105282;28;20505;-82
2021/08/24 01:41:37;;;;;;;5.68;4.50;;;14.20;99.90;;;;;;5081825;28;20041;-82
2021/08/24 01:44:07;;;;;;;4.47;3.87;;;14.20;99.90;;;;;;5084483;28;20031;-82
2021/08/24 01:46:50;;;;;;;6.40;4.90;;;14.20;99.90;;;;;;5088442;28;20261;-81
2021/08/24 01:49:18;;;;;;;10.35;4.47;;;14.10;99.90;;;;;;5088279;28;20408;-81
2021/08/24 01:51:53;;;;;;;8.55;4.38;;;14.20;99.90;;;;;;5095314;28;20016;-83
2021/08/24 01:54:43;;;;;;;5.35;4.60;;;14.10;99.90;;;;;;5098647;28;20028;-82
2021/08/24 01:57:18;;;;;;;6.75;5.10;;;14.10;99.90;;;;;;5093973;28;20034;-81
2021/08/24 01:59:55;;;;;;;7.38;4.28;;;14.10;99.90;;;;;;5099515;28;20468;-81
2021/08/24 02:02:27;;;;;;;8.60;5.05;;;14.00;99.90;;;;;;5082887;28;20070;-81
2021/08/24 02:05:00;;;;;;;7.22;5.07;;;14.00;99.90;;;;;;5083871;28;20035;-81
2021/08/24 02:07:30;;;;;;;6.38;4.93;;;14.00;99.90;;;;;;5086065;28;20120;-81
2021/08/24 02:10:03;;;;;;;4.53;4.00;;;14.00;99.90;;;;;;5085855;28;20013;-81
2021/08/24 02:12:34;;;;;;;6.55;4.80;;;14.00;99.90;;;;;;5089588;28;20438;-82
2021/08/24 02:15:01;;;;;;;5.32;4.65;;;13.90;99.90;;;;;;5094586;28;20051;-82
2021/08/24 02:17:29;;;;;;;11.88;5.65;;;13.90;99.90;;;;;;5090921;28;20035;-82
2021/08/24 02:20:09;;;;;;;5.93;4.57;;;13.90;99.90;;;;;;5085592;28;20074;-82
2021/08/24 02:22:39;;;;;;;8.80;5.60;;;13.90;99.90;;;;;;5088563;28;20024;-82
2021/08/24 02:25:16;;;;;;;8.15;4.70;;;13.90;99.90;;;;;;5100246;28;20070;-83
2021/08/24 02:27:50;;;;;;;6.97;4.70;;;13.80;99.90;;;;;;5092114;28;20032;-81
2021/08/24 02:30:16;;;;;;;7.00;5.43;;;13.80;99.90;;;;;;5081323;28;20088;-82
2021/08/24 02:32:45;;;;;;;7.70;5.20;;;13.80;99.90;;;;;;5093313;28;20083;-82
2021/08/24 02:35:23;;;;;;;8.75;5.35;;;13.80;99.90;;;;;;5092156;28;20020;-81
2021/08/24 02:38:06;;;;;;;12.00;5.03;;;13.70;99.90;;;;;;5092956;28;20397;-82
2021/08/24 02:40:41;;;;;;;5.45;4.95;;;13.70;99.90;;;;;;5078627;28;20093;-83
2021/08/24 02:43:28;;;;;;;6.50;5.40;;;13.70;99.90;;;;;;5104518;28;20023;-83
2021/08/24 02:48:31;;;;;;;8.95;4.50;;;13.60;99.90;;;;;;5054198;22;20061;-83
2021/08/24 02:50:58;;;;;;;9.77;5.00;;;13.60;99.90;;;;;;5019814;28;20027;-83
2021/08/24 02:53:23;;;;;;;5.90;5.05;;;13.60;99.90;;;;;;5020519;28;20371;-81
2021/08/24 02:55:50;;;;;;;9.95;4.78;;;13.60;99.90;;;;;;5022860;28;20036;-82
2021/08/24 02:58:16;;;;;;;5.85;5.10;;;13.60;99.90;;;;;;5007005;28;20032;-82
2021/08/24 03:00:42;;;;;;;5.35;4.85;;;13.60;99.90;;;;;;5025050;28;20042;-82
2021/08/24 03:03:08;;;;;;;6.80;4.95;;;13.60;99.90;;;;;;5029807;28;20111;-82
2021/08/24 03:05:34;;;;;;;5.82;4.95;;;13.60;99.90;;;;;;5027792;28;20025;-82
2021/08/24 03:08:00;;;;;;;8.23;5.20;;;13.50;99.90;;;;;;5024305;28;20033;-83
2021/08/24 03:10:29;;;;;;;8.32;4.95;;;13.50;99.90;;;;;;5033735;28;20029;-82
2021/08/24 03:13:10;;;;;;;13.82;6.15;;;13.50;99.90;;;;;;5032465;28;20025;-83
2021/08/24 03:16:02;;;;;;;;;;;13.50;99.90;;;;;;5026996;28;20021;-83
2021/08/24 03:18:38;;;;;;;6.63;5.80;;;13.40;99.90;;;;;;5027148;28;19893;-82
2021/08/24 03:21:09;;;;;;;6.90;4.93;;;13.40;99.90;;;;;;5030164;28;20070;-82
2021/08/24 03:23:38;;;;;;;10.48;5.22;;;13.50;99.90;;;;;;5024428;28;20022;-82
2021/08/24 03:26:05;;;;;;;7.05;5.15;;;13.50;99.90;;;;;;5037408;28;20068;-83
2021/08/24 03:28:31;;;;;;;8.48;5.72;;;13.50;99.90;;;;;;5019192;28;20030;-82
2021/08/24 03:30:57;;;;;;;7.32;5.28;;;13.50;99.90;;;;;;5018606;28;20152;-83
2021/08/24 03:33:22;;;;;;;6.40;5.50;;;13.40;99.90;;;;;;5021560;28;20030;-82
2021/08/24 03:35:48;;;;;;;9.07;6.13;;;13.50;99.90;;;;;;5022631;28;20050;-83
2021/08/24 03:38:14;;;;;;;13.90;6.38;;;13.40;99.90;;;;;;5023229;28;20032;-83
2021/08/24 03:40:40;;;;;;;11.25;6.72;;;13.50;99.90;;;;;;5024829;28;20030;-82
2021/08/24 03:43:06;;;;;;;12.13;6.15;;;13.40;99.90;;;;;;5019582;28;20018;-83
2021/08/24 03:45:32;;;;;;;7.75;6.32;;;13.40;99.90;;;;;;5018388;28;20048;-83
2021/08/24 03:47:57;;;;;;;6.75;6.05;;;13.40;99.90;;;;;;5015812;28;20169;-84
2021/08/24 03:50:24;;;;;;;10.65;6.63;;;13.40;99.90;;;;;;5014909;28;20033;-82
2021/08/24 03:52:50;;;;;;;11.63;7.07;;;13.40;99.90;;;;;;5015246;28;20033;-82
2021/08/24 03:55:17;;;;;;;14.68;7.03;;;13.40;99.90;;;;;;5012822;28;20385;-82
2021/08/24 03:57:43;;;;;;;15.88;7.20;;;13.40;99.90;;;;;;5012823;28;20622;-82
2021/08/24 04:00:10;;;;;;;8.25;7.45;;;13.40;99.90;;;;;;5014117;28;20038;-82
2021/08/24 04:02:38;;;;;;;12.23;7.15;;;13.40;99.90;;;;;;5012932;28;20034;-82
2021/08/24 04:05:04;;;;;;;7.22;6.40;;;13.40;99.90;;;;;;5013475;28;20018;-82
2021/08/24 04:07:31;;;;;;;12.40;7.85;;;13.40;99.90;;;;;;5014725;28;20018;-82
2021/08/24 04:09:57;;;;;;;11.63;7.50;;;13.50;99.90;;;;;;5012941;28;20058;-83
2021/08/24 04:12:23;;;;;;;12.30;8.10;;;13.40;99.90;;;;;;5013403;28;20050;-83
2021/08/24 04:14:49;;;;;;;9.73;7.63;;;13.40;99.90;;;;;;5012788;28;20037;-82
2021/08/24 04:17:15;;;;;;;8.07;6.97;;;13.40;99.90;;;;;;5012731;28;20382;-83
2021/08/24 04:19:40;;;;;;;8.10;7.30;;;13.40;99.90;;;;;;5012739;28;20061;-83
2021/08/24 04:22:08;;;;;;;12.40;7.90;;;13.40;99.90;;;;;;5013154;28;20026;-83
2021/08/24 04:24:33;;;;;;;12.82;8.07;;;13.40;99.90;;;;;;5013671;28;20077;-83
2021/08/24 04:26:59;;;;;;;11.75;7.93;;;13.40;99.90;;;;;;5014087;28;20053;-82
2021/08/24 04:29:24;;;;;;;13.13;8.18;;;13.30;99.90;;;;;;5014080;28;20042;-83
2021/08/24 04:31:50;;;;;;;12.95;8.48;;;13.40;99.90;;;;;;5013331;28;20030;-83
2021/08/24 04:34:15;;;;;;;13.15;7.88;;;13.40;99.90;;;;;;5012920;28;20053;-82
2021/08/24 04:36:41;;;;;;;11.45;8.10;;;13.30;99.90;;;;;;5013013;28;20037;-83
2021/08/24 04:39:06;;;;;;;11.18;8.30;;;13.40;99.90;;;;;;5013349;28;20108;-83
2021/08/24 04:41:32;;;;;;;14.40;7.25;;;13.30;99.90;;;;;;5013209;28;20033;-83
2021/08/24 04:43:59;;;;;;;12.05;7.88;;;13.30;99.90;;;;;;5013690;28;20053;-83
2021/08/24 04:46:24;;;;;;;7.57;6.85;;;13.40;99.90;;;;;;5012508;28;20061;-83
2021/08/24 04:48:51;;;;;;;12.38;7.30;;;13.40;99.90;;;;;;5013186;28;20038;-83
2021/08/24 04:51:16;;;;;;;11.50;7.80;;;13.50;99.90;;;;;;5013254;28;20030;-83
2021/08/24 04:53:42;;;;;;;11.50;7.93;;;13.50;99.90;;;;;;5012636;28;20044;-82
2021/08/24 04:56:07;;;;;;;11.00;7.70;;;13.50;99.90;;;;;;5012917;28;20048;-82
2021/08/24 04:58:33;;;;;;;8.45;7.47;;;13.60;99.90;;;;;;5012951;28;20026;-83
2021/08/24 05:01:01;;;;;;;12.85;7.80;;;13.50;99.90;;;;;;5012318;28;20048;-83
2021/08/24 05:03:27;;;;;;;12.82;7.68;;;13.60;99.90;;;;;;5013725;28;20029;-83
2021/08/24 05:05:52;;;;;;;15.27;8.15;;;13.60;99.90;;;;;;5020504;28;20382;-83
2021/08/24 05:08:18;;;;;;;16.25;8.05;;;13.60;99.90;;;;;;5020503;28;20101;-83
2021/08/24 05:10:43;;;;;;;14.35;8.07;;;13.70;99.90;;;;;;5017255;28;20022;-82
2021/08/24 05:13:09;;;;;;;10.30;7.47;;;13.70;99.90;;;;;;5017890;28;20021;-83
2021/08/24 05:15:35;;;;;;;14.45;7.47;;;13.70;99.90;;;;;;5021803;28;20014;-81
2021/08/24 05:18:00;;;;;;;11.68;7.47;;;13.80;99.90;;;;;;5040083;28;20034;-82
2021/08/24 05:20:26;;;;;;;17.60;9.73;;;13.80;99.90;;;;;;5034482;28;20038;-82
2021/08/24 05:22:54;;;;;;;9.10;7.05;;;13.80;99.90;;;;;;5018312;28;20030;-83
2021/08/24 05:25:22;;;;;;;13.65;8.15;;;13.90;99.90;;;;;;5017165;28;20025;-82
2021/08/24 05:27:48;;;;;;;14.25;7.75;;;13.90;99.90;;;;;;5031211;28;20053;-82
2021/08/24 05:30:17;;;;;;;12.93;7.63;;;14.00;99.90;;;;;;5027974;28;20155;-81
2021/08/24 05:32:42;;;;;;;8.68;7.00;;;14.00;99.90;;;;;;5032556;28;20006;-81
2021/08/24 05:35:08;;;;;;;9.35;6.90;;;14.10;99.90;;;;;;5030023;28;20355;-81
2021/08/24 05:37:34;;;;;;;14.48;7.10;;;14.20;99.90;;;;;;5017153;28;20382;-81
2021/08/24 05:39:59;;;;;;;13.25;7.75;;;14.20;99.90;;;;;;5003070;28;20026;-81
2021/08/24 05:42:25;;;;;;;17.42;7.97;;;14.20;99.90;;;;;;5005170;28;20388;-81
2021/08/24 05:44:51;;;;;;;17.55;7.80;;;14.30;99.90;;;;;;5000424;28;20065;-82
2021/08/24 05:47:16;;;;;;;14.35;8.52;;;14.40;99.90;;;;;;5002996;28;20053;-82
2021/08/24 05:49:42;;;;;;;14.93;7.85;;;14.40;99.90;;;;;;5006315;28;20022;-82
2021/08/24 05:52:11;;;;;;;17.08;8.23;;;14.50;99.90;;;;;;5011699;28;20022;-81
2021/08/24 05:54:37;;;;;;;8.55;7.00;;;14.60;99.90;;;;;;5009125;28;20026;-82
2021/08/24 05:57:04;;;;;;;10.93;7.82;;;14.70;99.90;;;;;;5000002;28;20610;-82
2021/08/24 05:59:32;;;;;;;13.15;7.65;;;14.70;99.90;;;;;;5004606;28;20030;-82
2021/08/24 06:01:57;;;;;;;10.80;8.48;;;14.80;99.90;;;;;;5002673;28;20592;-82
2021/08/24 06:04:23;;;;;;;11.48;7.05;;;14.90;99.90;;;;;;5001489;28;20030;-82
2021/08/24 06:06:49;;;;;;;13.73;7.13;;;14.90;99.90;;;;;;5005834;28;20505;-82
2021/08/24 06:09:14;;;;;;;12.60;7.10;;;14.90;99.90;;;;;;5001403;28;20031;-82
2021/08/24 06:11:44;;;;;;;11.48;7.50;;;15.00;99.90;;;;;;5002578;28;20018;-82
2021/08/24 06:14:10;;;;;;;9.50;6.82;;;15.10;99.90;;;;;;5002653;28;20486;-81
2021/08/24 06:16:37;;;;;;;15.68;7.68;;;15.10;99.90;;;;;;5004281;28;20033;-80
2021/08/24 06:19:02;;;;;;;14.93;6.93;;;15.20;99.90;;;;;;4999550;28;20030;-81
2021/08/24 06:21:28;;;;;;;10.10;6.45;;;15.30;99.90;;;;;;5009887;28;20041;-80
2021/08/24 06:23:54;;;;;;;11.95;6.93;;;15.30;99.90;;;;;;5012805;28;20089;-81
2021/08/24 06:26:20;;;;;;;8.55;6.75;;;15.40;99.90;;;;;;5012429;28;20061;-81
2021/08/24 06:28:46;;;;;;;15.07;7.78;;;15.40;99.90;;;;;;5012813;28;20086;-79
2021/08/24 06:31:22;;;;;;;12.35;6.78;;;15.40;99.90;;;;;;5010153;28;20025;-80
2021/08/24 06:33:49;;;;;;;11.45;6.93;;;15.50;99.90;;;;;;5013081;28;20110;-80
2021/08/24 06:36:15;;;;;;;9.93;6.63;;;15.60;99.90;;;;;;5012017;28;20037;-75
2021/08/24 06:38:41;;;;;;;9.18;6.28;;;15.60;99.90;;;;;;5010910;28;20045;-75
2021/08/24 06:41:07;;;;;;;13.45;6.75;;;15.60;99.90;;;;;;5012505;28;20366;-75
2021/08/24 06:43:33;;;;;;;11.95;6.80;;;15.60;99.90;;;;;;5012495;28;20068;-76
2021/08/24 06:45:59;;;;;;;16.08;7.15;;;15.70;99.90;;;;;;5012129;28;20030;-75
2021/08/24 06:48:24;;;;;;;14.63;7.07;;;15.80;99.90;;;;;;5012421;28;20091;-75
2021/08/24 06:50:51;;;;;;;13.10;6.82;;;15.80;99.90;;;;;;5012608;28;20026;-75
2021/08/24 06:53:17;;;;;;;8.52;6.55;;;15.90;99.90;;;;;;5012571;28;20258;-75
2021/08/24 06:55:43;;;;;;;17.75;7.60;;;15.90;99.90;;;;;;5013290;28;20533;-75
2021/08/24 06:58:09;;;;;;;17.17;6.50;;;16.00;99.90;;;;;;5013249;28;20018;-75
2021/08/24 07:00:37;;;;;;;20.13;7.25;;;16.00;99.90;;;;;;5012381;28;20169;-76
2021/08/24 07:03:06;;;;;;;16.05;6.15;;;16.10;99.90;;;;;;5013064;28;20021;-78
2021/08/24 07:05:33;;;;;;;9.55;5.95;;;16.10;99.90;;;;;;5003675;28;20031;-76
2021/08/24 07:08:00;;;;;;;6.63;5.90;;;16.20;99.90;;;;;;5000894;28;20021;-76
2021/08/24 07:10:26;;;;;;;9.77;6.25;;;16.20;99.90;;;;;;5013263;28;20490;-76
2021/08/24 07:12:52;;;;;;;9.75;6.07;;;16.20;99.90;;;;;;5012214;28;20033;-74
2021/08/24 07:15:21;;;;;;;10.15;5.97;;;16.30;99.90;;;;;;5013240;28;20033;-78
2021/08/24 07:17:50;;;;;;;10.77;5.60;;;16.30;99.90;;;;;;5012418;28;20298;-76
2021/08/24 07:20:18;;;;;;;12.10;6.32;;;16.40;99.90;;;;;;5012256;28;20108;-72
2021/08/24 07:22:44;;;;;;;9.10;6.00;;;16.50;99.90;;;;;;5012488;28;20059;-73
2021/08/24 07:25:13;;;;;;;7.03;5.15;;;16.50;99.90;;;;;;5013400;28;20032;-71
2021/08/24 07:27:38;;;;;;;8.25;4.93;;;16.60;99.90;;;;;;5012480;28;20041;-72
2021/08/24 07:30:05;;;;;;;11.57;5.63;;;16.70;99.90;;;;;;5012972;28;20470;-73
2021/08/24 07:32:31;;;;;;;10.32;5.85;;;16.70;99.90;;;;;;5012749;28;20116;-74
2021/08/24 07:34:57;;;;;;;11.65;6.30;;;16.80;99.90;;;;;;5013122;28;20117;-73
2021/08/24 07:37:22;;;;;;;9.98;5.25;;;16.80;99.90;;;;;;5013061;28;20026;-73
2021/08/24 07:39:48;;;;;;;10.40;5.75;;;16.90;99.90;;;;;;5013154;28;20183;-74
2021/08/24 07:42:13;;;;;;;10.73;5.55;;;17.00;99.90;;;;;;5013530;28;20042;-75
2021/08/24 07:44:39;;;;;;;12.27;4.93;;;17.00;99.90;;;;;;5013411;28;20014;-76
2021/08/24 07:47:07;;;;;;;6.40;4.55;;;17.10;99.90;;;;;;5012537;28;20046;-74
2021/08/24 07:49:38;;;;;;;10.38;5.25;;;17.20;99.90;;;;;;5011417;28;20471;-75
2021/08/24 07:52:08;;;;;;;7.10;4.80;;;17.30;99.90;;;;;;5012940;28;20038;-75
2021/08/24 07:54:34;;;;;;;9.27;4.50;;;17.30;99.90;;;;;;5012111;28;20381;-75
2021/08/24 07:57:00;;;;;;;7.60;4.47;;;17.40;99.90;;;;;;5014546;28;20048;-74
2021/08/24 07:59:26;;;;;;;7.05;3.97;;;17.40;99.90;;;;;;5012451;28;20470;-75
2021/08/24 08:01:55;;;;;;;6.13;3.90;;;17.50;99.90;;;;;;5011887;28;20042;-75
2021/08/24 08:04:27;;;;;;;5.13;3.63;;;17.60;99.90;;;;;;5012586;28;20026;-76
2021/08/24 08:06:53;;;;;;;8.10;3.95;;;17.60;99.90;;;;;;5012305;28;20036;-73
2021/08/24 08:09:20;;;;;;;8.02;4.40;;;17.70;99.90;;;;;;5011826;28;20030;-75
2021/08/24 08:11:47;;;;;;;6.20;3.85;;;17.80;99.90;;;;;;5000942;28;20025;-73
2021/08/24 08:14:13;;;;;;;6.13;3.80;;;17.80;99.90;;;;;;4998208;28;20027;-73
2021/08/24 08:16:40;;;;;;;6.35;3.88;;;17.80;99.90;;;;;;4994499;28;20439;-74
2021/08/24 08:19:05;;;;;;;6.38;3.63;;;17.80;99.90;;;;;;4999017;28;20114;-74
2021/08/24 08:21:33;;;;;;;14.00;3.83;;;17.80;99.90;;;;;;4999132;28;20124;-74
2021/08/24 08:24:00;;;;;;;5.32;3.17;;;17.80;99.90;;;;;;5000155;28;20423;-75
2021/08/24 08:26:27;;;;;;;6.15;3.67;;;17.80;99.90;;;;;;4998899;28;20030;-75
2021/08/24 08:28:55;;;;;;;6.93;3.58;;;17.90;99.90;;;;;;5006571;28;20048;-76
2021/08/24 08:31:22;;;;;;;4.45;3.35;;;17.90;99.90;;;;;;5007761;28;20032;-74
2021/08/24 08:33:48;;;;;;;6.43;3.40;;;17.90;99.90;;;;;;5006493;28;20014;-75
2021/08/24 08:36:14;;;;;;;6.55;4.18;;;17.90;99.90;;;;;;4999682;28;20489;-74
2021/08/24 08:38:40;;;;;;;6.57;3.38;;;18.00;99.90;;;;;;5000145;28;20421;-74
2021/08/24 08:41:34;;;;;;;5.60;3.30;;;18.00;99.90;;;;;;5001887;28;20049;-73
2021/08/24 08:44:17;;;;;;;3.60;3.30;;;18.10;99.90;;;;;;4999814;28;20026;-74
2021/08/24 08:46:51;;;;;;;9.95;4.10;;;18.10;99.90;;;;;;5012593;28;20077;-75
2021/08/24 08:49:43;;;;;;;6.00;3.70;;;18.20;99.90;;;;;;5014046;28;20030;-77
2021/08/24 08:52:21;;;;;;;7.70;4.22;;;18.20;99.90;;;;;;5013353;28;20092;-75
2021/08/24 08:55:12;;;;;;;4.80;4.05;;;18.20;99.90;;;;;;5013319;28;20034;-77
2021/08/24 08:57:50;;;;;;;8.48;4.45;;;18.20;99.90;;;;;;5001815;28;20466;-77
2021/08/24 09:00:21;;;;;;;5.13;3.40;;;18.20;99.90;;;;;;5013197;28;20037;-77
2021/08/24 09:02:50;;;;;;;5.55;3.90;;;18.20;99.90;;;;;;5014511;28;20075;-78
2021/08/24 09:05:20;;;;;;;10.43;4.75;;;18.30;99.90;;;;;;5014885;28;20063;-76
2021/08/24 09:07:55;;;;;;;7.38;4.68;;;18.40;99.90;;;;;;5014876;28;20113;-76
2021/08/24 09:10:23;;;;;;;8.73;3.92;;;18.50;99.90;;;;;;5014801;28;20153;-76
2021/08/24 09:13:04;;;;;;;8.10;4.38;;;18.40;99.90;;;;;;5014688;28;20028;-77
2021/08/24 09:15:36;;;;;;;;;;;18.50;99.90;;;;;;5015523;28;20084;-77
2021/08/24 09:18:03;;;;;;;4.82;4.35;;;18.50;99.90;;;;;;5015497;28;19953;-77
2021/08/24 09:20:34;;;;;;;12.38;3.42;;;18.50;99.90;;;;;;5014146;28;20033;-76
2021/08/24 09:23:03;;;;;;;8.27;4.28;;;18.60;99.90;;;;;;5015191;28;20037;-77
2021/08/24 09:25:29;;;;;;;4.95;3.42;;;18.50;99.90;;;;;;5015238;28;20030;-77
2021/08/24 09:28:23;;;;;;;8.52;3.70;;;18.60;99.90;;;;;;5012056;28;20363;-74
2021/08/24 09:30:49;;;;;;;8.45;3.22;;;18.60;99.90;;;;;;4999457;28;20066;-71
2021/08/24 09:33:14;;;;;;;4.60;3.17;;;18.60;99.90;;;;;;5000195;28;20108;-72
2021/08/24 09:35:43;;;;;;;5.93;2.95;;;18.80;99.90;;;;;;5014880;28;20092;-71
2021/08/24 09:38:30;;;;;;;7.93;3.50;;;18.90;99.90;;;;;;5015012;28;20484;-72
2021/08/24 09:41:15;;;;;;;4.97;3.05;;;19.00;99.90;;;;;;5004926;28;20498;-71
2021/08/24 09:43:41;;;;;;;4.18;3.05;;;19.10;99.90;;;;;;5010731;28;20401;-72
2021/08/24 09:46:15;;;;;;;3.65;2.90;;;19.10;99.90;;;;;;5009586;28;20034;-71
2021/08/24 09:49:04;;;;;;;6.63;3.30;;;19.20;99.90;;;;;;5010789;28;20081;-72
2021/08/24 09:51:51;;;;;;;5.15;2.53;;;19.30;99.90;;;;;;5012956;28;20382;-72
2021/08/24 09:54:20;;;;;;;4.25;2.80;;;19.40;99.90;;;;;;5013448;28;20030;-72
2021/08/24 09:56:51;;;;;;;6.22;2.72;;;19.50;99.90;;;;;;5010040;28;20033;-72
2021/08/24 09:59:25;;;;;;;5.07;2.50;;;19.60;99.90;;;;;;5012134;28;20033;-73
2021/08/24 10:01:52;;;;;;;4.95;2.85;;;19.60;99.90;;;;;;5006264;28;20045;-72
2021/08/24 10:04:18;;;;;;;3.65;2.40;;;19.60;99.90;;;;;;5014410;28;20029;-77
2021/08/24 10:06:58;;;;;;;5.68;3.00;;;19.60;99.90;;;;;;5010848;28;20026;-78
2021/08/24 10:09:31;;;;;;;4.53;2.88;;;19.60;99.90;;;;;;5013772;28;20022;-77
2021/08/24 10:12:35;;;;;;;5.32;2.78;;;19.70;99.90;;;;;;5014519;28;20105;-72
2021/08/24 10:15:39;;;;;;;3.38;2.92;;;19.80;99.90;;;;;;4973148;28;20054;-72
2021/08/24 10:18:14;;;;;;;2.58;2.33;;;19.90;99.90;;;;;;4953584;28;20214;-72
2021/08/24 10:20:49;;;;;;;9.00;3.20;;;19.90;99.90;;;;;;4950231;28;20034;-72
2021/08/24 10:23:23;;;;;;;3.70;2.20;;;20.00;99.90;;;;;;4981524;28;20033;-72
2021/08/24 10:25:52;;;;;;;4.95;2.35;;;20.10;99.90;;;;;;5013945;28;20026;-72
2021/08/24 10:28:25;;;;;;;5.43;2.45;;;20.20;99.90;;;;;;5001228;28;20378;-71
2021/08/24 10:30:55;;;;;;;5.22;3.00;;;20.10;99.90;;;;;;5000650;28;20035;-75
2021/08/24 10:33:47;;;;;;;;;;;20.10;99.90;;;;;;5012559;28;20029;-76
2021/08/24 10:36:22;;;;;;;3.17;2.20;;;20.20;99.90;;;;;;5011586;28;19912;-77
2021/08/24 10:38:55;;;;;;;3.15;2.50;;;20.20;99.90;;;;;;5008827;28;20034;-78
2021/08/24 10:41:40;;;;;;;5.63;2.72;;;20.20;99.90;;;;;;5014135;28;20542;-75
2021/08/24 10:44:25;;;;;;;5.57;2.72;;;20.10;99.90;;;;;;4995573;28;20141;-79
2021/08/24 10:47:14;;;;;;;4.25;3.00;;;19.90;99.90;;;;;;4995561;28;20054;-79
2021/08/24 10:49:40;;;;;;;3.92;2.97;;;20.30;99.90;;;;;;4996190;28;20117;-79
2021/08/24 10:52:39;;;;;;;5.32;2.75;;;20.40;99.90;;;;;;5001403;28;20117;-80
2021/08/24 10:55:37;;;;;;;5.00;2.72;;;20.50;99.90;;;;;;5005557;28;20382;-80
2021/08/24 10:58:17;;;;;;;5.28;2.13;;;20.50;99.90;;;;;;5002200;28;20034;-79
2021/08/24 11:01:01;;;;;;;;;;;20.50;99.90;;;;;;5014102;28;20474;-77
2021/08/24 11:03:29;;;;;;;9.13;3.95;;;20.60;99.90;;;;;;5011575;28;20239;-78
2021/08/24 11:06:15;;;;;;;3.97;2.88;;;20.60;99.90;;;;;;4995607;28;20026;-78
2021/08/24 11:09:00;;;;;;;4.13;3.13;;;20.50;99.90;;;;;;5004947;28;20499;-79
2021/08/24 11:11:32;;;;;;;4.65;2.63;;;20.40;99.90;;;;;;5014690;28;20041;-78
2021/08/24 11:14:19;;;;;;;4.80;2.30;;;20.40;99.90;;;;;;5017721;28;20044;-79
2021/08/24 11:17:15;;;;;;;3.92;2.88;;;20.40;99.90;;;;;;4999176;28;20027;-79
2021/08/24 11:19:57;;;;;;;4.75;3.05;;;20.30;99.90;;;;;;4994945;28;20173;-79
2021/08/24 11:22:40;;;;;;;5.35;2.50;;;20.30;99.90;;;;;;5000013;28;20127;-79
2021/08/24 11:25:40;;;;;;;6.50;2.40;;;20.40;99.90;;;;;;4996971;28;20018;-80
2021/08/24 11:28:30;;;;;;;6.32;3.00;;;20.40;99.90;;;;;;4997635;28;20057;-78
2021/08/24 11:31:35;;;;;;;5.15;2.65;;;20.50;99.90;;;;;;5002222;28;20054;-79
2021/08/24 11:34:30;;;;;;;3.45;2.60;;;20.50;99.90;;;;;;4966235;28;20031;-73
2021/08/24 11:37:09;;;;;;;3.92;2.53;;;20.50;99.90;;;;;;4990776;28;20042;-73
2021/08/24 11:39:45;;;;;;;3.10;2.33;;;20.50;99.90;;;;;;4997140;28;20021;-73
2021/08/24 11:42:36;;;;;;;4.25;2.28;;;20.50;99.90;;;;;;4998871;28;20038;-73
2021/08/24 11:45:05;;;;;;;4.68;2.50;;;20.60;99.90;;;;;;4990016;28;20041;-73
2021/08/24 11:47:48;;;;;;;4.47;2.13;;;20.80;99.90;;;;;;5011355;28;20140;-73
2021/08/24 11:50:27;;;;;;;4.70;2.25;;;20.90;99.90;;;;;;5009738;28;20129;-73
2021/08/24 11:53:05;;;;;;;7.70;2.22;;;20.90;99.90;;;;;;5009250;28;20153;-74
2021/08/24 11:55:39;;;;;;;7.13;2.38;;;20.90;99.90;;;;;;5003969;28;20033;-74
2021/08/24 11:58:11;;;;;;;3.22;2.33;;;21.00;99.90;;;;;;5004119;28;20038;-73
2021/08/24 12:00:38;;;;;;;2.63;2.17;;;21.00;99.90;;;;;;4998986;28;20038;-73
2021/08/24 12:03:11;;;;;;;2.20;1.83;;;21.10;99.90;;;;;;4993830;28;20058;-73
2021/08/24 12:05:48;;;;;;;5.50;2.40;;;21.10;99.90;;;;;;5008942;28;20034;-73
2021/08/24 12:08:26;;;;;;;3.72;2.15;;;21.10;99.90;;;;;;5006885;28;20069;-72
2021/08/24 12:10:51;;;;;;;3.25;1.90;;;21.20;99.90;;;;;;5012370;28;20026;-73
2021/08/24 12:13:30;;;;;;;4.43;2.33;;;21.30;99.90;;;;;;5012107;28;20025;-73
2021/08/24 12:16:20;;;;;;;4.65;2.58;;;21.40;99.90;;;;;;5010838;28;20022;-72
2021/08/24 12:18:48;;;;;;;4.68;2.40;;;21.30;99.90;;;;;;5004005;28;20594;-73
2021/08/24 12:21:35;;;;;;;3.88;2.33;;;21.30;99.90;;;;;;5012179;28;20115;-71
2021/08/24 12:24:23;;;;;;;4.28;2.13;;;21.40;99.90;;;;;;5002478;28;20076;-72
2021/08/24 12:27:13;;;;;;;2.75;2.28;;;21.50;99.90;;;;;;5005902;28;20161;-72
2021/08/24 12:29:39;;;;;;;4.53;2.90;;;21.50;99.90;;;;;;4988982;28;20056;-72
2021/08/24 12:32:11;;;;;;;6.10;2.35;;;21.60;99.90;;;;;;5010000;28;20037;-72
2021/08/24 12:34:38;;;;;;;3.63;2.20;;;21.70;99.90;;;;;;5008039;28;20512;-72
2021/08/24 12:37:24;;;;;;;2.63;2.40;;;21.60;99.90;;;;;;5008187;28;20026;-72
2021/08/24 12:39:54;;;;;;;5.03;2.22;;;21.80;99.90;;;;;;5005396;28;20036;-72
2021/08/24 12:42:22;;;;;;;2.47;2.00;;;22.00;99.90;;;;;;5011550;28;20053;-72
2021/08/24 12:45:00;;;;;;;4.78;2.05;;;22.10;99.90;;;;;;5005528;28;20034;-73
2021/08/24 12:47:29;;;;;;;2.38;2.08;;;22.20;99.90;;;;;;5011317;28;20061;-73
2021/08/24 12:50:18;;;;;;;3.87;2.30;;;22.20;99.90;;;;;;5011921;28;20038;-73
2021/08/24 12:52:52;;;;;;;2.47;1.70;;;22.20;99.90;;;;;;5006290;28;20285;-73
2021/08/24 12:55:34;;;;;;;2.15;1.60;;;22.10;99.90;;;;;;5011734;28;20025;-73
2021/08/24 12:58:04;;;;;;;3.53;2.40;;;22.10;99.90;;;;;;5010884;28;20390;-77
2021/08/24 13:00:36;;;;;;;4.32;2.10;;;22.10;99.90;;;;;;5007070;28;20182;-72
2021/08/24 13:03:20;;;;;;;3.20;2.10;;;22.00;99.90;;;;;;5007883;28;20567;-71
2021/08/24 13:05:48;;;;;;;2.97;2.60;;;22.00;99.90;;;;;;5005017;28;20057;-72
2021/08/24 13:08:23;;;;;;;3.28;2.10;;;21.90;99.90;;;;;;5007486;28;20108;-73
2021/08/24 13:10:53;;;;;;;4.25;2.03;;;21.90;99.90;;;;;;5006609;28;20502;-73
2021/08/24 13:13:28;;;;;;;3.30;2.13;;;21.90;99.90;;;;;;5005401;28;20064;-72